Map

Track Data

SID SEASON NUMBER BASIN SUBBASIN NAME ISO_TIME NATURE LAT LON WMO_WIND WMO_PRES WMO_AGENCY TRACK_TYPE DIST2LAND LANDFALL IFLAG USA_AGENCY USA_ATCF_ID USA_LAT USA_LON USA_RECORD USA_STATUS USA_WIND USA_PRES USA_SSHS USA_R34_NE USA_R34_SE USA_R34_SW USA_R34_NW USA_R50_NE USA_R50_SE USA_R50_SW USA_R50_NW USA_R64_NE USA_R64_SE USA_R64_SW USA_R64_NW USA_POCI USA_ROCI USA_RMW USA_EYE TOKYO_LAT TOKYO_LON TOKYO_GRADE TOKYO_WIND TOKYO_PRES TOKYO_R50_DIR TOKYO_R50_LONG TOKYO_R50_SHORT TOKYO_R30_DIR TOKYO_R30_LONG TOKYO_R30_SHORT TOKYO_LAND CMA_LAT CMA_LON CMA_CAT CMA_WIND CMA_PRES HKO_LAT HKO_LON HKO_CAT HKO_WIND HKO_PRES NEWDELHI_LAT NEWDELHI_LON NEWDELHI_GRADE NEWDELHI_WIND NEWDELHI_PRES NEWDELHI_CI NEWDELHI_DP NEWDELHI_POCI REUNION_LAT REUNION_LON REUNION_TYPE REUNION_WIND REUNION_PRES REUNION_TNUM REUNION_CI REUNION_RMW REUNION_R34_NE REUNION_R34_SE REUNION_R34_SW REUNION_R34_NW REUNION_R50_NE REUNION_R50_SE REUNION_R50_SW REUNION_R50_NW REUNION_R64_NE REUNION_R64_SE REUNION_R64_SW REUNION_R64_NW BOM_LAT BOM_LON BOM_TYPE BOM_WIND BOM_PRES BOM_TNUM BOM_CI BOM_RMW BOM_R34_NE BOM_R34_SE BOM_R34_SW BOM_R34_NW BOM_R50_NE BOM_R50_SE BOM_R50_SW BOM_R50_NW BOM_R64_NE BOM_R64_SE BOM_R64_SW BOM_R64_NW BOM_ROCI BOM_POCI BOM_EYE BOM_POS_METHOD BOM_PRES_METHOD NADI_LAT NADI_LON NADI_CAT NADI_WIND NADI_PRES WELLINGTON_LAT WELLINGTON_LON WELLINGTON_WIND WELLINGTON_PRES DS824_LAT DS824_LON DS824_STAGE DS824_WIND DS824_PRES TD9636_LAT TD9636_LON TD9636_STAGE TD9636_WIND TD9636_PRES TD9635_LAT TD9635_LON TD9635_WIND TD9635_PRES TD9635_ROCI NEUMANN_LAT NEUMANN_LON NEUMANN_CLASS NEUMANN_WIND NEUMANN_PRES MLC_LAT MLC_LON MLC_CLASS MLC_WIND MLC_PRES USA_GUST BOM_GUST BOM_GUST_PER REUNION_GUST REUNION_GUST_PER USA_SEAHGT USA_SEARAD_NE USA_SEARAD_SE USA_SEARAD_SW USA_SEARAD_NW STORM_SPEED STORM_DIR
1968153N17275 1968 29 NA CS ABBY 1968-06-01 06:00:00 TS 17.0000 -85.5000 25 hurdat_atl main 123 123 O_____________ hurdat_atl AL011968 17.0000 -85.5000 TD 25 -1 1 0
1968153N17275 1968 29 NA CS ABBY 1968-06-01 09:00:00 TS 17.0625 -85.4776 main 134 134 P_____________ AL011968 17.0625 -85.4776 TD 25 -1 2 8
1968153N17275 1968 29 NA CS ABBY 1968-06-01 12:00:00 TS 17.2000 -85.5000 25 hurdat_atl main 145 145 O_____________ hurdat_atl AL011968 17.2000 -85.5000 TD 25 -1 4 345
1968153N17275 1968 29 NA CS ABBY 1968-06-01 15:00:00 TS 17.4625 -85.5924 main 179 179 P_____________ AL011968 17.4625 -85.5924 TD 25 -1 6 342
1968153N17275 1968 29 NA CS ABBY 1968-06-01 18:00:00 TS 17.8000 -85.7000 25 hurdat_atl main 212 208 O_____________ hurdat_atl AL011968 17.8000 -85.7000 TD 25 -1 7 345
1968153N17275 1968 29 NA CS ABBY 1968-06-01 21:00:00 TS 18.1200 -85.7725 main 208 194 P_____________ AL011968 18.1200 -85.7725 TD 27 -1 7 352
1968153N17275 1968 29 NA CS ABBY 1968-06-02 00:00:00 TS 18.5000 -85.8000 30 1005 hurdat_atl main 194 180 O_____________ hurdat_atl AL011968 18.5000 -85.8000 TD 30 1005 -1 9 359
1968153N17275 1968 29 NA CS ABBY 1968-06-02 03:00:00 TS 18.9775 -85.7874 main 177 169 P_____________ AL011968 18.9775 -85.7874 TD 30 -1 10 6
1968153N17275 1968 29 NA CS ABBY 1968-06-02 06:00:00 TS 19.5000 -85.7000 30 hurdat_atl main 178 162 O_____________ hurdat_atl AL011968 19.5000 -85.7000 TD 30 -1 11 13
1968153N17275 1968 29 NA CS ABBY 1968-06-02 09:00:00 TS 20.0075 -85.5300 main 171 154 P_____________ AL011968 20.0075 -85.5300 TD 32 -1 11 21
1968153N17275 1968 29 NA CS ABBY 1968-06-02 12:00:00 TS 20.5000 -85.3000 35 hurdat_atl main 154 94 O_____________ hurdat_atl AL011968 20.5000 -85.3000 TS 35 0 11 25
1968153N17275 1968 29 NA CS ABBY 1968-06-02 15:00:00 TS 20.9820 -85.0459 main 91 44 P_____________ AL011968 20.9820 -85.0459 TS 37 0 10 27
1968153N17275 1968 29 NA CS ABBY 1968-06-02 18:00:00 TS 21.4000 -84.8000 40 1002 hurdat_atl main 44 24 O_____________ hurdat_atl AL011968 21.4000 -84.8000 TS 40 1002 0 8 30
1968153N17275 1968 29 NA CS ABBY 1968-06-02 21:00:00 TS 21.6402 -84.6429 main 24 0 P_____________ AL011968 21.6402 -84.6429 TS 42 999 0 7 29
1968153N17275 1968 29 NA CS ABBY 1968-06-02 23:00:00 TS 21.9000 -84.5000 45 997 hurdat_atl main 0 0 O_____________ hurdat_atl AL011968 21.9000 -84.5000 L TS 45 997 0 10 26
1968153N17275 1968 29 NA GM ABBY 1968-06-03 00:00:00 TS 22.1000 -84.4000 45 997 hurdat_atl main 10 0 O_____________ hurdat_atl AL011968 22.1000 -84.4000 TS 45 997 0 11 24
1968153N17275 1968 29 NA GM ABBY 1968-06-03 03:00:00 TS 22.5845 -84.1668 main 10 0 P_____________ AL011968 22.5845 -84.1668 TS 45 998 0 10 22
1968153N17275 1968 29 NA GM ABBY 1968-06-03 06:00:00 TS 23.0000 -84.0000 45 999 hurdat_atl main 33 33 O_____________ hurdat_atl AL011968 23.0000 -84.0000 TS 45 999 0 10 18
1968153N17275 1968 29 NA GM ABBY 1968-06-03 09:00:00 TS 23.5300 -83.8276 main 78 78 P_____________ AL011968 23.5300 -83.8276 TS 45 999 0 10 15
1968153N17275 1968 29 NA GM ABBY 1968-06-03 12:00:00 TS 24.0000 -83.7000 45 999 hurdat_atl main 126 126 O_____________ hurdat_atl AL011968 24.0000 -83.7000 TS 45 999 0 8 13
1968153N17275 1968 29 NA GM ABBY 1968-06-03 15:00:00 TS 24.2875 -83.6422 main 157 157 P_____________ AL011968 24.2875 -83.6422 TS 45 998 0 5 10
1968153N17275 1968 29 NA GM ABBY 1968-06-03 18:00:00 TS 24.5000 -83.6000 45 997 hurdat_atl main 179 179 O_____________ hurdat_atl AL011968 24.5000 -83.6000 TS 45 997 0 5 14
1968153N17275 1968 29 NA GM ABBY 1968-06-03 21:00:00 TS 24.7274 -83.5297 main 201 197 P_____________ AL011968 24.7274 -83.5297 TS 47 995 0 5 20
1968153N17275 1968 29 NA GM ABBY 1968-06-04 00:00:00 TS 25.0000 -83.4000 50 994 hurdat_atl main 197 164 O_____________ hurdat_atl AL011968 25.0000 -83.4000 TS 50 994 0 7 26
1968153N17275 1968 29 NA GM ABBY 1968-06-04 03:00:00 TS 25.3700 -83.1800 main 160 114 P_____________ AL011968 25.3700 -83.1800 TS 52 993 0 9 29
1968153N17275 1968 29 NA GM ABBY 1968-06-04 06:00:00 TS 25.8000 -82.9000 55 993 hurdat_atl main 114 66 O_____________ hurdat_atl AL011968 25.8000 -82.9000 TS 55 993 0 10 30
1968153N17275 1968 29 NA GM ABBY 1968-06-04 09:00:00 TS 26.2575 -82.6001 main 59 11 P_____________ AL011968 26.2575 -82.6001 TS 55 992 0 11 31
1968153N17275 1968 29 NA GM ABBY 1968-06-04 12:00:00 TS 26.7000 -82.3000 55 992 hurdat_atl main 11 0 O_____________ hurdat_atl AL011968 26.7000 -82.3000 L TS 55 992 0 10 31
1968153N17275 1968 29 NA NA ABBY 1968-06-04 15:00:00 TS 27.0723 -82.0571 main 0 0 P_____________ AL011968 27.0723 -82.0571 TS 50 0 8 32
1968153N17275 1968 29 NA NA ABBY 1968-06-04 18:00:00 TS 27.4000 -81.8000 45 hurdat_atl main 0 0 O_____________ hurdat_atl AL011968 27.4000 -81.8000 TS 45 0 9 40
1968153N17275 1968 29 NA NA ABBY 1968-06-04 21:00:00 TS 27.7377 -81.4353 main 0 0 P_____________ AL011968 27.7377 -81.4353 TS 45 0 9 46
1968153N17275 1968 29 NA NA ABBY 1968-06-05 00:00:00 TS 28.0000 -81.1000 45 hurdat_atl main 0 0 O_____________ hurdat_atl AL011968 28.0000 -81.1000 TS 45 0 6 48
1968153N17275 1968 29 NA NA ABBY 1968-06-05 03:00:00 TS 28.1448 -80.9197 main 0 0 P_____________ AL011968 28.1448 -80.9197 TS 45 0 3 53
1968153N17275 1968 29 NA NA ABBY 1968-06-05 06:00:00 TS 28.2000 -80.8000 45 hurdat_atl main 0 0 O_____________ hurdat_atl AL011968 28.2000 -80.8000 TS 45 0 2 74
1968153N17275 1968 29 NA NA ABBY 1968-06-05 09:00:00 TS 28.2150 -80.6499 main 9 9 P_____________ AL011968 28.2150 -80.6499 TS 50 0 3 90
1968153N17275 1968 29 NA NA ABBY 1968-06-05 12:00:00 TS 28.2000 -80.5000 55 hurdat_atl main 14 14 O_____________ hurdat_atl AL011968 28.2000 -80.5000 TS 55 0 3 95
1968153N17275 1968 29 NA NA ABBY 1968-06-05 15:00:00 TS 28.1925 -80.3350 main 31 31 P_____________ AL011968 28.1925 -80.3350 TS 60 0 3 90
1968153N17275 1968 29 NA NA ABBY 1968-06-05 18:00:00 TS 28.2000 -80.2000 65 994 hurdat_atl main 40 40 O_____________ hurdat_atl AL011968 28.2000 -80.2000 HU 65 994 1 2 80
1968153N17275 1968 29 NA NA ABBY 1968-06-05 21:00:00 TS 28.2275 -80.1051 main 50 45 P_____________ AL011968 28.2275 -80.1051 HU 65 1 1 40
1968153N17275 1968 29 NA NA ABBY 1968-06-06 00:00:00 TS 28.3000 -80.1000 65 hurdat_atl main 45 31 O_____________ hurdat_atl AL011968 28.3000 -80.1000 HU 65 1 2 332
1968153N17275 1968 29 NA NA ABBY 1968-06-06 03:00:00 TS 28.4125 -80.2126 main 31 14 P_____________ AL011968 28.4125 -80.2126 HU 65 1 4 319
1968153N17275 1968 29 NA NA ABBY 1968-06-06 06:00:00 TS 28.6000 -80.4000 65 hurdat_atl main 14 14 O_____________ hurdat_atl AL011968 28.6000 -80.4000 HU 65 1 6 324
1968153N17275 1968 29 NA NA ABBY 1968-06-06 09:00:00 TS 28.8700 -80.5925 main 19 9 P_____________ AL011968 28.8700 -80.5925 HU 62 0 7 330
1968153N17275 1968 29 NA NA ABBY 1968-06-06 12:00:00 TS 29.2000 -80.8000 60 992 hurdat_atl main 14 9 O_____________ hurdat_atl AL011968 29.2000 -80.8000 TS 60 992 0 8 331
1968153N17275 1968 29 NA NA ABBY 1968-06-06 15:00:00 TS 29.5383 -81.0091 main 14 9 P_____________ AL011968 29.5383 -81.0091 TS 57 993 0 8 334
1968153N17275 1968 29 NA NA ABBY 1968-06-06 18:00:00 TS 29.9000 -81.2000 55 hurdat_atl main 14 9 I_____________ hurdat_atl AL011968 29.9000 -81.2000 TS 55 994 0 8 338
1968153N17275 1968 29 NA NA ABBY 1968-06-06 21:00:00 TS 30.2841 -81.3518 main 9 9 P_____________ AL011968 30.2841 -81.3518 TS 55 995 0 8 341
1968153N17275 1968 29 NA NA ABBY 1968-06-06 22:00:00 TS 30.4000 -81.4000 55 hurdat_atl main 9 0 I_____________ hurdat_atl AL011968 30.4000 -81.4000 L TS 55 996 0 7 338
1968153N17275 1968 29 NA NA ABBY 1968-06-07 00:00:00 TS 30.6000 -81.5000 50 997 hurdat_atl main 0 0 O_____________ hurdat_atl AL011968 30.6000 -81.5000 TS 50 997 0 8 340
1968153N17275 1968 29 NA NA ABBY 1968-06-07 03:00:00 TS 30.9897 -81.6564 main 0 0 P_____________ AL011968 30.9897 -81.6564 TS 45 998 0 8 342
1968153N17275 1968 29 NA NA ABBY 1968-06-07 06:00:00 TS 31.4000 -81.8000 40 999 hurdat_atl main 0 0 O_____________ hurdat_atl AL011968 31.4000 -81.8000 TS 40 999 0 8 343
1968153N17275 1968 29 NA NA ABBY 1968-06-07 09:00:00 TS 31.7150 -81.9151 main 0 0 P_____________ AL011968 31.7150 -81.9151 TS 37 1000 0 6 344
1968153N17275 1968 29 NA NA ABBY 1968-06-07 12:00:00 TS 32.0000 -82.0000 35 1002 hurdat_atl main 0 0 O_____________ hurdat_atl AL011968 32.0000 -82.0000 TS 35 1002 0 6 349
1968153N17275 1968 29 NA NA ABBY 1968-06-07 15:00:00 TS 32.3150 -82.0576 main 0 0 P_____________ AL011968 32.3150 -82.0576 TS 32 1002 -1 6 352
1968153N17275 1968 29 NA NA ABBY 1968-06-07 18:00:00 TS 32.6000 -82.1000 30 1003 hurdat_atl main 0 0 O_____________ hurdat_atl AL011968 32.6000 -82.1000 TD 30 1003 -1 5 350
1968153N17275 1968 29 NA NA ABBY 1968-06-07 21:00:00 TS 32.8075 -82.1575 main 0 0 P_____________ AL011968 32.8075 -82.1575 TD 30 -1 4 348
1968153N17275 1968 29 NA NA ABBY 1968-06-08 00:00:00 TS 33.0000 -82.2000 30 hurdat_atl main 0 0 O_____________ hurdat_atl AL011968 33.0000 -82.2000 TD 30 -1 4 354
1968153N17275 1968 29 NA NA ABBY 1968-06-08 03:00:00 TS 33.2350 -82.2001 main 0 0 P_____________ AL011968 33.2350 -82.2001 TD 30 -1 5 2
1968153N17275 1968 29 NA NA ABBY 1968-06-08 06:00:00 TS 33.5000 -82.2000 30 hurdat_atl main 0 0 O_____________ hurdat_atl AL011968 33.5000 -82.2000 TD 30 -1 6 356
1968153N17275 1968 29 NA NA ABBY 1968-06-08 09:00:00 TS 33.7850 -82.2499 main 0 0 P_____________ AL011968 33.7850 -82.2499 TD 27 -1 6 352
1968153N17275 1968 29 NA NA ABBY 1968-06-08 12:00:00 TS 34.1000 -82.3000 25 hurdat_atl main 0 0 O_____________ hurdat_atl AL011968 34.1000 -82.3000 TD 25 -1 7 355
1968153N17275 1968 29 NA NA ABBY 1968-06-08 15:00:00 TS 34.4350 -82.3224 main 0 0 P_____________ AL011968 34.4350 -82.3224 TD 25 -1 7 0
1968153N17275 1968 29 NA NA ABBY 1968-06-08 18:00:00 TS 34.8000 -82.3000 25 hurdat_atl main 0 0 O_____________ hurdat_atl AL011968 34.8000 -82.3000 TD 25 -1 8 6
1968153N17275 1968 29 NA NA ABBY 1968-06-08 21:00:00 TS 35.2000 -82.2226 main 0 0 P_____________ AL011968 35.2000 -82.2226 TD 25 -1 8 12
1968153N17275 1968 29 NA NA ABBY 1968-06-09 00:00:00 TS 35.6000 -82.1000 25 hurdat_atl main 0 0 O_____________ hurdat_atl AL011968 35.6000 -82.1000 TD 25 -1 8 13
1968153N17275 1968 29 NA NA ABBY 1968-06-09 03:00:00 TS 36.0023 -81.9875 main 0 0 P_____________ AL011968 36.0023 -81.9875 TD 25 -1 7 19
1968153N17275 1968 29 NA NA ABBY 1968-06-09 06:00:00 TS 36.3000 -81.8000 25 hurdat_atl main 0 0 O_____________ hurdat_atl AL011968 36.3000 -81.8000 TD 25 -1 6 44
1968153N17275 1968 29 NA NA ABBY 1968-06-09 09:00:00 TS 36.4175 -81.4875 main 0 0 P_____________ AL011968 36.4175 -81.4875 TD 25 -1 6 80
1968153N17275 1968 29 NA NA ABBY 1968-06-09 12:00:00 TS 36.4000 -81.1000 25 hurdat_atl main 0 0 O_____________ hurdat_atl AL011968 36.4000 -81.1000 TD 25 -1 6 98
1968153N17275 1968 29 NA NA ABBY 1968-06-09 15:00:00 TS 36.3299 -80.7074 main 0 0 P_____________ AL011968 36.3299 -80.7074 TD 25 -1 7 107
1968153N17275 1968 29 NA NA ABBY 1968-06-09 18:00:00 TS 36.2000 -80.3000 25 hurdat_atl main 0 0 O_____________ hurdat_atl AL011968 36.2000 -80.3000 TD 25 -1 7 112
1968153N17275 1968 29 NA NA ABBY 1968-06-09 21:00:00 TS 36.0575 -79.8850 main 0 0 P_____________ AL011968 36.0575 -79.8850 TD 25 -1 7 115
1968153N17275 1968 29 NA NA ABBY 1968-06-10 00:00:00 DS 35.9000 -79.5000 25 hurdat_atl main 0 0 O_____________ hurdat_atl AL011968 35.9000 -79.5000 LO 25 -3 7 115
1968153N17275 1968 29 NA NA ABBY 1968-06-10 03:00:00 DS 35.7800 -79.1552 main 0 0 P_____________ AL011968 35.7800 -79.1552 LO 25 -3 6 122
1968153N17275 1968 29 NA NA ABBY 1968-06-10 06:00:00 DS 35.6000 -78.9000 25 hurdat_atl main 0 0 O_____________ hurdat_atl AL011968 35.6000 -78.9000 LO 25 -3 6 147
1968153N17275 1968 29 NA NA ABBY 1968-06-10 09:00:00 DS 35.2799 -78.7550 main 0 0 P_____________ AL011968 35.2799 -78.7550 LO 25 -3 7 167
1968153N17275 1968 29 NA NA ABBY 1968-06-10 12:00:00 DS 34.9000 -78.7000 25 hurdat_atl main 0 0 O_____________ hurdat_atl AL011968 34.9000 -78.7000 LO 25 -3 7 176
1968153N17275 1968 29 NA NA ABBY 1968-06-10 15:00:00 DS 34.5500 -78.6852 main 0 0 P_____________ AL011968 34.5500 -78.6852 LO 25 -3 7 0
1968153N17275 1968 29 NA NA ABBY 1968-06-10 18:00:00 DS 34.2000 -78.7000 25 hurdat_atl main 0 0 O_____________ hurdat_atl AL011968 34.2000 -78.7000 LO 25 -3 7 0
1968153N17275 1968 29 NA NA ABBY 1968-06-10 21:00:00 DS 33.8200 -78.7000 main 9 9 P_____________ AL011968 33.8200 -78.7000 LO 25 -3 7 0
1968153N17275 1968 29 NA NA ABBY 1968-06-11 00:00:00 DS 33.5000 -78.7000 25 hurdat_atl main 28 28 O_____________ hurdat_atl AL011968 33.5000 -78.7000 LO 25 -3 5 0
1968153N17275 1968 29 NA NA ABBY 1968-06-11 03:00:00 DS 33.2900 -78.7000 main 43 43 P_____________ AL011968 33.2900 -78.7000 LO 25 -3 3 0
1968153N17275 1968 29 NA NA ABBY 1968-06-11 06:00:00 DS 33.2000 -78.7000 25 hurdat_atl main 46 46 O_____________ hurdat_atl AL011968 33.2000 -78.7000 LO 25 -3 1 0
1968153N17275 1968 29 NA NA ABBY 1968-06-11 09:00:00 DS 33.2200 -78.7150 main 46 43 P_____________ AL011968 33.2200 -78.7150 LO 25 -3 1 0
1968153N17275 1968 29 NA NA ABBY 1968-06-11 12:00:00 TS 33.3000 -78.7000 25 hurdat_atl main 43 43 O_____________ hurdat_atl AL011968 33.3000 -78.7000 TD 25 -1 1 34
1968153N17275 1968 29 NA NA ABBY 1968-06-11 15:00:00 TS 33.3425 -78.6225 main 49 43 P_____________ AL011968 33.3425 -78.6225 TD 25 -1 2 59
1968153N17275 1968 29 NA NA ABBY 1968-06-11 18:00:00 TS 33.4000 -78.5000 25 hurdat_atl main 49 44 O_____________ hurdat_atl AL011968 33.4000 -78.5000 TD 25 -1 3 56
1968153N17275 1968 29 NA NA ABBY 1968-06-11 21:00:00 TS 33.4925 -78.3500 main 44 33 P_____________ AL011968 33.4925 -78.3500 TD 27 -1 3 52
1968153N17275 1968 29 NA NA ABBY 1968-06-12 00:00:00 TS 33.6000 -78.2000 30 hurdat_atl main 33 22 O_____________ hurdat_atl AL011968 33.6000 -78.2000 TD 30 -1 3 46
1968153N17275 1968 29 NA NA ABBY 1968-06-12 03:00:00 TS 33.7000 -78.0924 main 22 11 P_____________ AL011968 33.7000 -78.0924 TD 30 -1 3 40
1968153N17275 1968 29 NA NA ABBY 1968-06-12 06:00:00 TS 33.8000 -78.0000 30 hurdat_atl main 11 9 O_____________ hurdat_atl AL011968 33.8000 -78.0000 TD 30 -1 2 39
1968153N17275 1968 29 NA NA ABBY 1968-06-12 09:00:00 TS 33.8774 -77.9222 main 9 9 P_____________ AL011968 33.8774 -77.9222 TD 30 -1 3 40
1968153N17275 1968 29 NA NA ABBY 1968-06-12 12:00:00 TS 34.0000 -77.8000 30 hurdat_atl main 14 14 O_____________ hurdat_atl AL011968 34.0000 -77.8000 TD 30 -1 4 40
1968153N17275 1968 29 NA NA ABBY 1968-06-12 15:00:00 TS 34.2125 -77.5873 main 14 9 P_____________ AL011968 34.2125 -77.5873 TD 30 -1 6 40
1968153N17275 1968 29 NA NA ABBY 1968-06-12 18:00:00 TS 34.5000 -77.3000 30 hurdat_atl main 9 0 O_____________ hurdat_atl AL011968 34.5000 -77.3000 TD 30 -1 8 39
1968153N17275 1968 29 NA NA ABBY 1968-06-12 21:00:00 TS 34.8349 -76.9798 main 0 0 P_____________ AL011968 34.8349 -76.9798 TD 30 -1 9 39
1968153N17275 1968 29 NA NA ABBY 1968-06-13 00:00:00 TS 35.2000 -76.6000 30 hurdat_atl main 0 0 O_____________ hurdat_atl AL011968 35.2000 -76.6000 TD 30 -1 10 43
1968153N17275 1968 29 NA NA ABBY 1968-06-13 03:00:00 TS 35.5575 -76.1649 main 0 0 P_____________ AL011968 35.5575 -76.1649 TD 30 -1 10 46
1968153N17275 1968 29 NA NA ABBY 1968-06-13 06:00:00 TS 35.9000 -75.7000 30 hurdat_atl main 0 0 O_____________ hurdat_atl AL011968 35.9000 -75.7000 TD 30 -1 10 49
1968153N17275 1968 29 NA NA ABBY 1968-06-13 09:00:00 TS 36.2102 -75.2455 main 42 42 P_____________ AL011968 36.2102 -75.2455 TD 30 -1 9 50
1968153N17275 1968 29 NA NA ABBY 1968-06-13 12:00:00 TS 36.5000 -74.8000 30 hurdat_atl main 87 O_____________ hurdat_atl AL011968 36.5000 -74.8000 TD 30 -1 9 51

About IBTrACS Database

This database is a web-friendly format of International Best Track Archive for Climate Stewardship (IBTrACS), a global best track data archive curated by NOAA dating back to 1842.

Updated: 2022-06-24